sensor_id;sensor_type;location;lat;lon;timestamp;P1;durP1;ratioP1;P2;durP2;ratioP2
35592;SDS011;64447;52.140;5.602;2023-05-07T00:01:18;9.20;;;7.35;;
35592;SDS011;64447;52.140;5.602;2023-05-07T00:03:43;10.07;;;8.98;;
35592;SDS011;64447;52.140;5.602;2023-05-07T00:06:09;9.52;;;7.50;;
35592;SDS011;64447;52.140;5.602;2023-05-07T00:08:37;8.05;;;7.05;;
35592;SDS011;64447;52.140;5.602;2023-05-07T00:11:03;7.60;;;6.63;;
35592;SDS011;64447;52.140;5.602;2023-05-07T00:16:51;8.00;;;7.20;;
35592;SDS011;64447;52.140;5.602;2023-05-07T00:19:16;9.80;;;8.27;;
35592;SDS011;64447;52.140;5.602;2023-05-07T00:21:42;13.45;;;9.68;;
35592;SDS011;64447;52.140;5.602;2023-05-07T00:24:07;11.88;;;8.90;;
35592;SDS011;64447;52.140;5.602;2023-05-07T00:26:33;18.83;;;12.35;;
35592;SDS011;64447;52.140;5.602;2023-05-07T00:28:58;18.58;;;12.38;;
35592;SDS011;64447;52.140;5.602;2023-05-07T00:31:24;17.48;;;10.93;;
35592;SDS011;64447;52.140;5.602;2023-05-07T00:33:50;16.73;;;11.95;;
35592;SDS011;64447;52.140;5.602;2023-05-07T00:36:15;16.35;;;11.32;;
35592;SDS011;64447;52.140;5.602;2023-05-07T00:38:41;16.02;;;10.88;;
35592;SDS011;64447;52.140;5.602;2023-05-07T00:41:06;18.05;;;10.70;;
35592;SDS011;64447;52.140;5.602;2023-05-07T00:46:54;10.88;;;8.98;;
35592;SDS011;64447;52.140;5.602;2023-05-07T00:49:21;13.15;;;9.32;;
35592;SDS011;64447;52.140;5.602;2023-05-07T00:51:46;12.80;;;9.80;;
35592;SDS011;64447;52.140;5.602;2023-05-07T00:54:12;13.77;;;10.88;;
35592;SDS011;64447;52.140;5.602;2023-05-07T00:56:38;14.55;;;11.57;;
35592;SDS011;64447;52.140;5.602;2023-05-07T00:59:04;12.95;;;10.30;;
35592;SDS011;64447;52.140;5.602;2023-05-07T01:01:31;11.68;;;9.45;;
35592;SDS011;64447;52.140;5.602;2023-05-07T01:03:56;10.55;;;8.18;;
35592;SDS011;64447;52.140;5.602;2023-05-07T01:06:23;9.60;;;8.63;;
35592;SDS011;64447;52.140;5.602;2023-05-07T01:08:50;10.23;;;8.00;;
35592;SDS011;64447;52.140;5.602;2023-05-07T01:11:17;10.18;;;9.15;;
35592;SDS011;64447;52.140;5.602;2023-05-07T01:17:07;11.55;;;8.43;;
35592;SDS011;64447;52.140;5.602;2023-05-07T01:19:33;9.50;;;8.35;;
35592;SDS011;64447;52.140;5.602;2023-05-07T01:22:02;10.80;;;8.63;;
35592;SDS011;64447;52.140;5.602;2023-05-07T01:24:32;9.07;;;8.05;;
35592;SDS011;64447;52.140;5.602;2023-05-07T01:26:58;9.35;;;8.15;;
35592;SDS011;64447;52.140;5.602;2023-05-07T01:29:24;10.07;;;8.52;;
35592;SDS011;64447;52.140;5.602;2023-05-07T01:31:50;11.55;;;9.25;;
35592;SDS011;64447;52.140;5.602;2023-05-07T01:34:17;11.18;;;8.82;;
35592;SDS011;64447;52.140;5.602;2023-05-07T01:36:45;10.80;;;9.70;;
35592;SDS011;64447;52.140;5.602;2023-05-07T01:39:11;10.23;;;9.18;;
35592;SDS011;64447;52.140;5.602;2023-05-07T01:41:38;11.80;;;9.20;;
35592;SDS011;64447;52.140;5.602;2023-05-07T01:47:25;12.00;;;8.95;;
35592;SDS011;64447;52.140;5.602;2023-05-07T01:49:52;10.32;;;9.25;;
35592;SDS011;64447;52.140;5.602;2023-05-07T01:52:17;10.35;;;9.20;;
35592;SDS011;64447;52.140;5.602;2023-05-07T01:54:43;9.93;;;8.45;;
35592;SDS011;64447;52.140;5.602;2023-05-07T01:57:09;10.73;;;9.15;;
35592;SDS011;64447;52.140;5.602;2023-05-07T01:59:35;10.85;;;9.07;;
35592;SDS011;64447;52.140;5.602;2023-05-07T02:02:00;10.55;;;8.70;;
35592;SDS011;64447;52.140;5.602;2023-05-07T02:04:26;11.30;;;9.18;;
35592;SDS011;64447;52.140;5.602;2023-05-07T02:06:51;9.57;;;8.55;;
35592;SDS011;64447;52.140;5.602;2023-05-07T02:09:17;9.55;;;8.60;;
35592;SDS011;64447;52.140;5.602;2023-05-07T02:11:43;10.95;;;8.88;;
35592;SDS011;64447;52.140;5.602;2023-05-07T02:17:31;11.80;;;9.73;;
35592;SDS011;64447;52.140;5.602;2023-05-07T02:19:59;12.25;;;9.48;;
35592;SDS011;64447;52.140;5.602;2023-05-07T02:22:25;9.60;;;8.52;;
35592;SDS011;64447;52.140;5.602;2023-05-07T02:24:50;11.15;;;8.57;;
35592;SDS011;64447;52.140;5.602;2023-05-07T02:27:16;10.45;;;9.15;;
35592;SDS011;64447;52.140;5.602;2023-05-07T02:29:41;10.20;;;9.15;;
35592;SDS011;64447;52.140;5.602;2023-05-07T02:32:07;10.15;;;9.13;;
35592;SDS011;64447;52.140;5.602;2023-05-07T02:34:33;10.40;;;9.13;;
35592;SDS011;64447;52.140;5.602;2023-05-07T02:36:58;9.88;;;8.75;;
35592;SDS011;64447;52.140;5.602;2023-05-07T02:39:24;12.02;;;9.38;;
35592;SDS011;64447;52.140;5.602;2023-05-07T02:41:49;9.68;;;8.77;;
35592;SDS011;64447;52.140;5.602;2023-05-07T02:47:37;11.40;;;9.48;;
35592;SDS011;64447;52.140;5.602;2023-05-07T02:50:02;12.65;;;9.73;;
35592;SDS011;64447;52.140;5.602;2023-05-07T02:52:28;11.73;;;9.65;;
35592;SDS011;64447;52.140;5.602;2023-05-07T02:54:54;13.80;;;9.75;;
35592;SDS011;64447;52.140;5.602;2023-05-07T02:57:20;11.27;;;9.98;;
35592;SDS011;64447;52.140;5.602;2023-05-07T02:59:45;12.75;;;9.85;;
35592;SDS011;64447;52.140;5.602;2023-05-07T03:02:11;12.93;;;10.02;;
35592;SDS011;64447;52.140;5.602;2023-05-07T03:04:37;12.30;;;11.00;;
35592;SDS011;64447;52.140;5.602;2023-05-07T03:07:03;13.43;;;9.85;;
35592;SDS011;64447;52.140;5.602;2023-05-07T03:09:29;12.30;;;11.00;;
35592;SDS011;64447;52.140;5.602;2023-05-07T03:11:55;12.63;;;10.25;;
35592;SDS011;64447;52.140;5.602;2023-05-07T03:17:43;15.95;;;10.68;;
35592;SDS011;64447;52.140;5.602;2023-05-07T03:20:09;11.68;;;10.13;;
35592;SDS011;64447;52.140;5.602;2023-05-07T03:22:35;14.68;;;11.02;;
35592;SDS011;64447;52.140;5.602;2023-05-07T03:25:01;12.00;;;10.73;;
35592;SDS011;64447;52.140;5.602;2023-05-07T03:27:27;12.60;;;10.57;;
35592;SDS011;64447;52.140;5.602;2023-05-07T03:29:52;13.25;;;10.63;;
35592;SDS011;64447;52.140;5.602;2023-05-07T03:32:18;12.88;;;10.82;;
35592;SDS011;64447;52.140;5.602;2023-05-07T03:34:43;12.80;;;10.75;;
35592;SDS011;64447;52.140;5.602;2023-05-07T03:37:09;14.68;;;11.40;;
35592;SDS011;64447;52.140;5.602;2023-05-07T03:39:34;12.63;;;11.32;;
35592;SDS011;64447;52.140;5.602;2023-05-07T03:42:00;12.80;;;11.38;;
35592;SDS011;64447;52.140;5.602;2023-05-07T03:47:47;15.52;;;12.05;;
35592;SDS011;64447;52.140;5.602;2023-05-07T03:50:13;15.55;;;11.85;;
35592;SDS011;64447;52.140;5.602;2023-05-07T03:52:39;13.65;;;11.73;;
35592;SDS011;64447;52.140;5.602;2023-05-07T03:55:05;14.02;;;11.82;;
35592;SDS011;64447;52.140;5.602;2023-05-07T03:57:31;12.82;;;11.45;;
35592;SDS011;64447;52.140;5.602;2023-05-07T03:59:56;13.98;;;11.25;;
35592;SDS011;64447;52.140;5.602;2023-05-07T04:02:22;13.20;;;11.32;;
35592;SDS011;64447;52.140;5.602;2023-05-07T04:04:48;15.60;;;12.65;;
35592;SDS011;64447;52.140;5.602;2023-05-07T04:07:14;14.63;;;12.45;;
35592;SDS011;64447;52.140;5.602;2023-05-07T04:09:40;15.18;;;12.45;;
35592;SDS011;64447;52.140;5.602;2023-05-07T04:12:05;13.10;;;11.68;;
35592;SDS011;64447;52.140;5.602;2023-05-07T04:17:53;15.45;;;12.70;;
35592;SDS011;64447;52.140;5.602;2023-05-07T04:20:18;16.00;;;12.75;;
35592;SDS011;64447;52.140;5.602;2023-05-07T04:22:44;16.38;;;12.93;;
35592;SDS011;64447;52.140;5.602;2023-05-07T04:25:10;15.27;;;13.45;;
35592;SDS011;64447;52.140;5.602;2023-05-07T04:27:35;15.85;;;12.93;;
35592;SDS011;64447;52.140;5.602;2023-05-07T04:30:01;16.17;;;13.35;;
35592;SDS011;64447;52.140;5.602;2023-05-07T04:32:27;14.38;;;11.45;;
35592;SDS011;64447;52.140;5.602;2023-05-07T04:34:54;15.55;;;13.18;;
35592;SDS011;64447;52.140;5.602;2023-05-07T04:37:20;17.75;;;13.57;;
35592;SDS011;64447;52.140;5.602;2023-05-07T04:39:46;16.25;;;13.77;;
35592;SDS011;64447;52.140;5.602;2023-05-07T04:42:15;17.58;;;14.70;;
35592;SDS011;64447;52.140;5.602;2023-05-07T04:48:03;17.15;;;15.32;;
35592;SDS011;64447;52.140;5.602;2023-05-07T04:50:29;15.75;;;13.63;;
35592;SDS011;64447;52.140;5.602;2023-05-07T04:52:55;17.83;;;15.25;;
35592;SDS011;64447;52.140;5.602;2023-05-07T04:55:20;20.02;;;16.55;;
35592;SDS011;64447;52.140;5.602;2023-05-07T04:57:46;19.08;;;15.82;;
35592;SDS011;64447;52.140;5.602;2023-05-07T05:00:12;17.23;;;15.50;;
35592;SDS011;64447;52.140;5.602;2023-05-07T05:02:41;20.80;;;16.50;;
35592;SDS011;64447;52.140;5.602;2023-05-07T05:05:07;20.50;;;17.55;;
35592;SDS011;64447;52.140;5.602;2023-05-07T05:07:33;19.27;;;16.65;;
35592;SDS011;64447;52.140;5.602;2023-05-07T05:09:58;19.02;;;15.50;;
35592;SDS011;64447;52.140;5.602;2023-05-07T05:12:24;20.45;;;16.75;;
35592;SDS011;64447;52.140;5.602;2023-05-07T05:18:12;22.20;;;17.15;;
35592;SDS011;64447;52.140;5.602;2023-05-07T05:20:37;20.85;;;16.48;;
35592;SDS011;64447;52.140;5.602;2023-05-07T05:23:03;23.33;;;17.73;;
35592;SDS011;64447;52.140;5.602;2023-05-07T05:25:28;21.75;;;18.48;;
35592;SDS011;64447;52.140;5.602;2023-05-07T05:27:54;29.90;;;19.35;;
35592;SDS011;64447;52.140;5.602;2023-05-07T05:30:20;21.38;;;18.58;;
35592;SDS011;64447;52.140;5.602;2023-05-07T05:32:45;22.98;;;19.13;;
35592;SDS011;64447;52.140;5.602;2023-05-07T05:35:11;22.00;;;18.42;;
35592;SDS011;64447;52.140;5.602;2023-05-07T05:37:36;23.38;;;18.63;;
35592;SDS011;64447;52.140;5.602;2023-05-07T05:40:02;22.15;;;18.77;;
35592;SDS011;64447;52.140;5.602;2023-05-07T05:42:28;23.25;;;18.95;;
35592;SDS011;64447;52.140;5.602;2023-05-07T05:48:16;24.80;;;19.40;;
35592;SDS011;64447;52.140;5.602;2023-05-07T05:50:42;21.90;;;18.30;;
35592;SDS011;64447;52.140;5.602;2023-05-07T05:53:07;25.35;;;18.90;;
35592;SDS011;64447;52.140;5.602;2023-05-07T05:55:33;24.38;;;19.25;;
35592;SDS011;64447;52.140;5.602;2023-05-07T05:57:59;22.35;;;19.15;;
35592;SDS011;64447;52.140;5.602;2023-05-07T06:00:26;23.10;;;20.05;;
35592;SDS011;64447;52.140;5.602;2023-05-07T06:02:52;23.40;;;19.48;;
35592;SDS011;64447;52.140;5.602;2023-05-07T06:05:17;25.08;;;18.85;;
35592;SDS011;64447;52.140;5.602;2023-05-07T06:07:43;23.52;;;19.70;;
35592;SDS011;64447;52.140;5.602;2023-05-07T06:10:09;23.77;;;19.05;;
35592;SDS011;64447;52.140;5.602;2023-05-07T06:12:34;21.73;;;18.85;;
35592;SDS011;64447;52.140;5.602;2023-05-07T06:18:22;23.65;;;19.17;;
35592;SDS011;64447;52.140;5.602;2023-05-07T06:20:47;22.55;;;19.25;;
35592;SDS011;64447;52.140;5.602;2023-05-07T06:23:13;24.65;;;18.52;;
35592;SDS011;64447;52.140;5.602;2023-05-07T06:25:39;26.20;;;20.35;;
35592;SDS011;64447;52.140;5.602;2023-05-07T06:28:05;25.70;;;20.13;;
35592;SDS011;64447;52.140;5.602;2023-05-07T06:30:31;25.08;;;21.13;;
35592;SDS011;64447;52.140;5.602;2023-05-07T06:32:56;23.60;;;20.13;;
35592;SDS011;64447;52.140;5.602;2023-05-07T06:35:22;26.02;;;21.75;;
35592;SDS011;64447;52.140;5.602;2023-05-07T06:37:47;23.40;;;20.25;;
35592;SDS011;64447;52.140;5.602;2023-05-07T06:40:13;26.25;;;21.35;;
35592;SDS011;64447;52.140;5.602;2023-05-07T06:42:38;27.17;;;22.00;;
35592;SDS011;64447;52.140;5.602;2023-05-07T06:48:26;28.20;;;22.30;;
35592;SDS011;64447;52.140;5.602;2023-05-07T06:50:51;25.60;;;21.63;;
35592;SDS011;64447;52.140;5.602;2023-05-07T06:53:18;25.35;;;20.35;;
35592;SDS011;64447;52.140;5.602;2023-05-07T06:55:43;24.65;;;21.08;;
35592;SDS011;64447;52.140;5.602;2023-05-07T06:58:09;24.52;;;21.77;;
35592;SDS011;64447;52.140;5.602;2023-05-07T07:00:34;23.98;;;21.20;;
35592;SDS011;64447;52.140;5.602;2023-05-07T07:03:00;25.13;;;20.52;;
35592;SDS011;64447;52.140;5.602;2023-05-07T07:05:26;26.08;;;21.70;;
35592;SDS011;64447;52.140;5.602;2023-05-07T07:07:51;24.85;;;21.20;;
35592;SDS011;64447;52.140;5.602;2023-05-07T07:10:20;24.08;;;21.27;;
35592;SDS011;64447;52.140;5.602;2023-05-07T07:12:46;27.35;;;21.35;;
35592;SDS011;64447;52.140;5.602;2023-05-07T07:18:34;27.13;;;22.15;;
35592;SDS011;64447;52.140;5.602;2023-05-07T07:21:00;26.42;;;21.02;;
35592;SDS011;64447;52.140;5.602;2023-05-07T07:23:26;24.65;;;20.98;;
35592;SDS011;64447;52.140;5.602;2023-05-07T07:25:52;27.02;;;21.92;;
35592;SDS011;64447;52.140;5.602;2023-05-07T07:28:20;24.48;;;21.88;;
35592;SDS011;64447;52.140;5.602;2023-05-07T07:30:46;24.45;;;21.63;;
35592;SDS011;64447;52.140;5.602;2023-05-07T07:33:12;26.50;;;22.65;;
35592;SDS011;64447;52.140;5.602;2023-05-07T07:35:37;25.75;;;22.85;;
35592;SDS011;64447;52.140;5.602;2023-05-07T07:38:03;26.02;;;22.95;;
35592;SDS011;64447;52.140;5.602;2023-05-07T07:40:28;27.75;;;22.45;;
35592;SDS011;64447;52.140;5.602;2023-05-07T07:42:54;22.48;;;20.08;;
35592;SDS011;64447;52.140;5.602;2023-05-07T07:48:42;26.33;;;22.40;;
35592;SDS011;64447;52.140;5.602;2023-05-07T07:51:08;26.25;;;21.50;;
35592;SDS011;64447;52.140;5.602;2023-05-07T07:53:34;25.50;;;21.25;;
35592;SDS011;64447;52.140;5.602;2023-05-07T07:55:59;25.67;;;21.27;;
35592;SDS011;64447;52.140;5.602;2023-05-07T07:58:25;25.27;;;21.50;;
35592;SDS011;64447;52.140;5.602;2023-05-07T08:04:12;23.25;;;20.58;;
35592;SDS011;64447;52.140;5.602;2023-05-07T08:06:38;23.65;;;20.90;;
35592;SDS011;64447;52.140;5.602;2023-05-07T08:09:04;23.88;;;19.42;;
35592;SDS011;64447;52.140;5.602;2023-05-07T08:11:29;23.13;;;20.17;;
35592;SDS011;64447;52.140;5.602;2023-05-07T08:13:55;25.23;;;21.92;;
35592;SDS011;64447;52.140;5.602;2023-05-07T08:16:21;27.40;;;20.80;;
35592;SDS011;64447;52.140;5.602;2023-05-07T08:18:47;23.50;;;20.00;;
35592;SDS011;64447;52.140;5.602;2023-05-07T08:21:12;27.20;;;21.58;;
35592;SDS011;64447;52.140;5.602;2023-05-07T08:23:38;26.33;;;21.27;;
35592;SDS011;64447;52.140;5.602;2023-05-07T08:26:03;22.40;;;19.67;;
35592;SDS011;64447;52.140;5.602;2023-05-07T08:28:29;24.38;;;19.65;;
35592;SDS011;64447;52.140;5.602;2023-05-07T08:34:17;25.00;;;20.52;;
35592;SDS011;64447;52.140;5.602;2023-05-07T08:36:42;24.83;;;19.90;;
35592;SDS011;64447;52.140;5.602;2023-05-07T08:39:09;28.00;;;21.50;;
35592;SDS011;64447;52.140;5.602;2023-05-07T08:41:34;23.90;;;20.23;;
35592;SDS011;64447;52.140;5.602;2023-05-07T08:44:00;21.85;;;18.90;;
35592;SDS011;64447;52.140;5.602;2023-05-07T08:46:30;25.65;;;19.73;;
35592;SDS011;64447;52.140;5.602;2023-05-07T08:48:57;25.63;;;19.42;;
35592;SDS011;64447;52.140;5.602;2023-05-07T08:51:23;25.70;;;20.30;;
35592;SDS011;64447;52.140;5.602;2023-05-07T08:53:49;24.55;;;20.27;;
35592;SDS011;64447;52.140;5.602;2023-05-07T08:56:15;25.13;;;20.25;;
35592;SDS011;64447;52.140;5.602;2023-05-07T08:58:44;28.58;;;20.90;;
35592;SDS011;64447;52.140;5.602;2023-05-07T09:04:32;28.23;;;22.33;;
35592;SDS011;64447;52.140;5.602;2023-05-07T09:06:58;26.98;;;21.13;;
35592;SDS011;64447;52.140;5.602;2023-05-07T09:09:28;26.67;;;20.83;;
35592;SDS011;64447;52.140;5.602;2023-05-07T09:11:57;29.67;;;21.83;;
35592;SDS011;64447;52.140;5.602;2023-05-07T09:14:26;27.73;;;21.52;;
35592;SDS011;64447;52.140;5.602;2023-05-07T09:16:53;27.63;;;22.58;;
35592;SDS011;64447;52.140;5.602;2023-05-07T09:19:22;27.60;;;21.50;;
35592;SDS011;64447;52.140;5.602;2023-05-07T09:21:48;26.40;;;21.50;;
35592;SDS011;64447;52.140;5.602;2023-05-07T09:24:17;26.15;;;20.45;;
35592;SDS011;64447;52.140;5.602;2023-05-07T09:26:43;25.27;;;20.42;;
35592;SDS011;64447;52.140;5.602;2023-05-07T09:29:09;25.38;;;19.67;;
35592;SDS011;64447;52.140;5.602;2023-05-07T09:31:38;28.25;;;20.83;;
35592;SDS011;64447;52.140;5.602;2023-05-07T09:34:04;24.70;;;20.33;;
35592;SDS011;64447;52.140;5.602;2023-05-07T09:36:31;26.15;;;20.83;;
35592;SDS011;64447;52.140;5.602;2023-05-07T09:38:59;26.23;;;21.08;;
35592;SDS011;64447;52.140;5.602;2023-05-07T09:41:25;28.63;;;21.88;;
35592;SDS011;64447;52.140;5.602;2023-05-07T09:43:54;27.75;;;20.63;;
35592;SDS011;64447;52.140;5.602;2023-05-07T09:49:42;27.85;;;22.27;;
35592;SDS011;64447;52.140;5.602;2023-05-07T09:52:15;28.33;;;21.70;;
35592;SDS011;64447;52.140;5.602;2023-05-07T09:54:41;29.55;;;21.67;;
35592;SDS011;64447;52.140;5.602;2023-05-07T09:57:09;26.00;;;21.80;;
35592;SDS011;64447;52.140;5.602;2023-05-07T09:59:37;27.55;;;22.42;;
35592;SDS011;64447;52.140;5.602;2023-05-07T10:02:04;28.33;;;22.45;;
35592;SDS011;64447;52.140;5.602;2023-05-07T10:04:30;27.80;;;21.85;;
35592;SDS011;64447;52.140;5.602;2023-05-07T10:06:57;25.40;;;21.13;;
35592;SDS011;64447;52.140;5.602;2023-05-07T10:09:23;26.88;;;21.13;;
35592;SDS011;64447;52.140;5.602;2023-05-07T10:11:51;27.45;;;21.58;;
35592;SDS011;64447;52.140;5.602;2023-05-07T10:14:17;26.52;;;21.10;;
35592;SDS011;64447;52.140;5.602;2023-05-07T10:16:45;27.75;;;21.73;;
35592;SDS011;64447;52.140;5.602;2023-05-07T10:19:12;27.70;;;22.23;;
35592;SDS011;64447;52.140;5.602;2023-05-07T10:21:43;30.23;;;22.88;;
35592;SDS011;64447;52.140;5.602;2023-05-07T10:24:21;27.15;;;22.10;;
35592;SDS011;64447;52.140;5.602;2023-05-07T10:26:51;26.80;;;22.52;;
35592;SDS011;64447;52.140;5.602;2023-05-07T10:35:09;28.95;;;23.10;;
35592;SDS011;64447;52.140;5.602;2023-05-07T10:37:41;29.45;;;24.25;;
35592;SDS011;64447;52.140;5.602;2023-05-07T10:40:08;31.55;;;25.02;;
35592;SDS011;64447;52.140;5.602;2023-05-07T10:42:34;32.25;;;23.52;;
35592;SDS011;64447;52.140;5.602;2023-05-07T10:45:13;28.05;;;23.63;;
35592;SDS011;64447;52.140;5.602;2023-05-07T10:50:34;30.45;;;23.83;;
35592;SDS011;64447;52.140;5.602;2023-05-07T10:55:47;26.92;;;22.42;;
35592;SDS011;64447;52.140;5.602;2023-05-07T11:00:56;31.10;;;22.58;;
35592;SDS011;64447;52.140;5.602;2023-05-07T11:03:22;28.65;;;21.20;;
35592;SDS011;64447;52.140;5.602;2023-05-07T11:05:55;26.85;;;21.20;;
35592;SDS011;64447;52.140;5.602;2023-05-07T11:09:07;26.63;;;20.95;;
35592;SDS011;64447;52.140;5.602;2023-05-07T11:11:45;23.65;;;20.27;;
35592;SDS011;64447;52.140;5.602;2023-05-07T11:14:12;25.40;;;19.90;;
35592;SDS011;64447;52.140;5.602;2023-05-07T11:16:38;24.15;;;19.95;;
35592;SDS011;64447;52.140;5.602;2023-05-07T11:19:05;25.00;;;20.55;;
35592;SDS011;64447;52.140;5.602;2023-05-07T11:21:35;23.60;;;19.67;;
35592;SDS011;64447;52.140;5.602;2023-05-07T11:24:01;23.77;;;19.48;;
35592;SDS011;64447;52.140;5.602;2023-05-07T11:26:28;22.42;;;19.42;;
35592;SDS011;64447;52.140;5.602;2023-05-07T11:28:55;24.50;;;19.25;;
35592;SDS011;64447;52.140;5.602;2023-05-07T11:31:25;25.48;;;20.20;;
35592;SDS011;64447;52.140;5.602;2023-05-07T11:33:52;26.45;;;20.85;;
35592;SDS011;64447;52.140;5.602;2023-05-07T11:36:18;26.58;;;21.15;;
35592;SDS011;64447;52.140;5.602;2023-05-07T11:38:45;27.55;;;21.67;;
35592;SDS011;64447;52.140;5.602;2023-05-07T11:41:12;28.83;;;21.63;;
35592;SDS011;64447;52.140;5.602;2023-05-07T11:43:38;22.45;;;19.80;;
35592;SDS011;64447;52.140;5.602;2023-05-07T11:46:09;24.55;;;21.40;;
35592;SDS011;64447;52.140;5.602;2023-05-07T11:48:35;25.38;;;21.63;;
35592;SDS011;64447;52.140;5.602;2023-05-07T11:51:02;27.10;;;20.92;;
35592;SDS011;64447;52.140;5.602;2023-05-07T11:53:36;24.75;;;20.98;;
35592;SDS011;64447;52.140;5.602;2023-05-07T11:56:06;26.30;;;20.83;;
35592;SDS011;64447;52.140;5.602;2023-05-07T11:58:32;27.67;;;22.65;;
35592;SDS011;64447;52.140;5.602;2023-05-07T12:00:58;25.67;;;21.08;;
35592;SDS011;64447;52.140;5.602;2023-05-07T12:03:24;26.25;;;21.20;;
35592;SDS011;64447;52.140;5.602;2023-05-07T12:05:50;25.92;;;20.10;;
35592;SDS011;64447;52.140;5.602;2023-05-07T12:08:16;22.70;;;19.77;;
35592;SDS011;64447;52.140;5.602;2023-05-07T12:10:43;24.75;;;19.52;;
35592;SDS011;64447;52.140;5.602;2023-05-07T12:13:15;23.80;;;20.30;;
35592;SDS011;64447;52.140;5.602;2023-05-07T12:15:42;24.80;;;21.20;;
35592;SDS011;64447;52.140;5.602;2023-05-07T12:18:08;25.70;;;19.95;;
35592;SDS011;64447;52.140;5.602;2023-05-07T12:20:35;24.45;;;20.15;;
35592;SDS011;64447;52.140;5.602;2023-05-07T12:23:01;24.63;;;20.35;;
35592;SDS011;64447;52.140;5.602;2023-05-07T12:25:30;23.33;;;19.25;;
35592;SDS011;64447;52.140;5.602;2023-05-07T12:27:56;22.08;;;19.10;;
35592;SDS011;64447;52.140;5.602;2023-05-07T12:30:24;21.90;;;18.77;;
35592;SDS011;64447;52.140;5.602;2023-05-07T12:32:53;24.38;;;19.95;;
35592;SDS011;64447;52.140;5.602;2023-05-07T12:35:26;23.02;;;20.27;;
35592;SDS011;64447;52.140;5.602;2023-05-07T12:37:56;23.58;;;19.30;;
35592;SDS011;64447;52.140;5.602;2023-05-07T12:40:24;24.13;;;19.88;;
35592;SDS011;64447;52.140;5.602;2023-05-07T12:42:52;25.48;;;20.45;;
35592;SDS011;64447;52.140;5.602;2023-05-07T12:45:21;24.67;;;20.98;;
35592;SDS011;64447;52.140;5.602;2023-05-07T12:47:47;27.48;;;21.35;;
35592;SDS011;64447;52.140;5.602;2023-05-07T12:50:13;26.77;;;20.85;;
35592;SDS011;64447;52.140;5.602;2023-05-07T12:52:39;26.10;;;20.15;;
35592;SDS011;64447;52.140;5.602;2023-05-07T12:55:06;25.77;;;20.75;;
35592;SDS011;64447;52.140;5.602;2023-05-07T12:57:42;29.60;;;21.48;;
35592;SDS011;64447;52.140;5.602;2023-05-07T13:00:13;26.35;;;20.48;;
35592;SDS011;64447;52.140;5.602;2023-05-07T13:02:39;24.95;;;20.70;;
35592;SDS011;64447;52.140;5.602;2023-05-07T13:05:07;27.75;;;20.42;;
35592;SDS011;64447;52.140;5.602;2023-05-07T13:07:33;24.90;;;20.77;;
35592;SDS011;64447;52.140;5.602;2023-05-07T13:09:59;30.05;;;20.15;;
35592;SDS011;64447;52.140;5.602;2023-05-07T13:12:25;23.38;;;18.95;;
35592;SDS011;64447;52.140;5.602;2023-05-07T13:14:50;22.85;;;19.20;;
35592;SDS011;64447;52.140;5.602;2023-05-07T13:20:37;23.67;;;18.00;;
35592;SDS011;64447;52.140;5.602;2023-05-07T13:23:03;24.55;;;18.13;;
35592;SDS011;64447;52.140;5.602;2023-05-07T13:25:29;19.88;;;17.05;;
35592;SDS011;64447;52.140;5.602;2023-05-07T13:27:58;18.98;;;16.00;;
35592;SDS011;64447;52.140;5.602;2023-05-07T13:30:24;18.38;;;15.73;;
35592;SDS011;64447;52.140;5.602;2023-05-07T13:32:50;17.52;;;14.07;;
35592;SDS011;64447;52.140;5.602;2023-05-07T13:35:17;16.40;;;13.63;;
35592;SDS011;64447;52.140;5.602;2023-05-07T13:37:43;14.73;;;13.15;;
35592;SDS011;64447;52.140;5.602;2023-05-07T13:40:08;18.30;;;13.40;;
35592;SDS011;64447;52.140;5.602;2023-05-07T13:42:34;15.80;;;11.75;;
35592;SDS011;64447;52.140;5.602;2023-05-07T13:45:00;17.10;;;14.38;;
35592;SDS011;64447;52.140;5.602;2023-05-07T13:50:50;16.48;;;13.15;;
35592;SDS011;64447;52.140;5.602;2023-05-07T13:53:17;15.95;;;13.25;;
35592;SDS011;64447;52.140;5.602;2023-05-07T13:55:43;18.58;;;15.10;;
35592;SDS011;64447;52.140;5.602;2023-05-07T13:58:09;17.13;;;13.82;;
35592;SDS011;64447;52.140;5.602;2023-05-07T14:00:35;19.50;;;13.50;;
35592;SDS011;64447;52.140;5.602;2023-05-07T14:03:01;15.93;;;14.10;;
35592;SDS011;64447;52.140;5.602;2023-05-07T14:05:28;18.67;;;15.80;;
35592;SDS011;64447;52.140;5.602;2023-05-07T14:07:54;18.02;;;14.93;;
35592;SDS011;64447;52.140;5.602;2023-05-07T14:10:21;16.77;;;14.65;;
35592;SDS011;64447;52.140;5.602;2023-05-07T14:12:47;17.15;;;13.82;;
35592;SDS011;64447;52.140;5.602;2023-05-07T14:15:13;16.75;;;14.30;;
35592;SDS011;64447;52.140;5.602;2023-05-07T14:21:01;20.13;;;14.77;;
35592;SDS011;64447;52.140;5.602;2023-05-07T14:23:27;18.80;;;14.98;;
35592;SDS011;64447;52.140;5.602;2023-05-07T14:25:53;19.02;;;15.30;;
35592;SDS011;64447;52.140;5.602;2023-05-07T14:28:18;19.42;;;16.17;;
35592;SDS011;64447;52.140;5.602;2023-05-07T14:30:44;17.90;;;14.05;;
35592;SDS011;64447;52.140;5.602;2023-05-07T14:33:10;19.35;;;14.43;;
35592;SDS011;64447;52.140;5.602;2023-05-07T14:35:35;21.13;;;15.90;;
35592;SDS011;64447;52.140;5.602;2023-05-07T14:38:01;19.02;;;15.95;;
35592;SDS011;64447;52.140;5.602;2023-05-07T14:40:27;20.45;;;16.27;;
35592;SDS011;64447;52.140;5.602;2023-05-07T14:42:52;21.15;;;16.73;;
35592;SDS011;64447;52.140;5.602;2023-05-07T14:45:18;15.77;;;14.07;;
35592;SDS011;64447;52.140;5.602;2023-05-07T14:51:05;18.30;;;14.40;;
35592;SDS011;64447;52.140;5.602;2023-05-07T14:53:31;16.48;;;14.40;;
35592;SDS011;64447;52.140;5.602;2023-05-07T14:55:57;20.23;;;17.60;;
35592;SDS011;64447;52.140;5.602;2023-05-07T14:58:22;21.70;;;17.55;;
35592;SDS011;64447;52.140;5.602;2023-05-07T15:00:48;22.15;;;17.60;;
35592;SDS011;64447;52.140;5.602;2023-05-07T15:03:13;22.70;;;18.83;;
35592;SDS011;64447;52.140;5.602;2023-05-07T15:05:39;23.05;;;18.30;;
35592;SDS011;64447;52.140;5.602;2023-05-07T15:08:06;22.83;;;19.00;;
35592;SDS011;64447;52.140;5.602;2023-05-07T15:10:34;25.02;;;19.90;;
35592;SDS011;64447;52.140;5.602;2023-05-07T15:13:05;26.35;;;19.20;;
35592;SDS011;64447;52.140;5.602;2023-05-07T15:15:32;26.02;;;19.77;;
35592;SDS011;64447;52.140;5.602;2023-05-07T15:21:19;25.80;;;20.02;;
35592;SDS011;64447;52.140;5.602;2023-05-07T15:23:45;26.88;;;20.08;;
35592;SDS011;64447;52.140;5.602;2023-05-07T15:26:11;28.50;;;21.27;;
35592;SDS011;64447;52.140;5.602;2023-05-07T15:28:36;27.48;;;22.50;;
35592;SDS011;64447;52.140;5.602;2023-05-07T15:31:03;29.92;;;22.73;;
35592;SDS011;64447;52.140;5.602;2023-05-07T15:33:30;29.95;;;23.80;;
35592;SDS011;64447;52.140;5.602;2023-05-07T15:35:55;29.17;;;23.02;;
35592;SDS011;64447;52.140;5.602;2023-05-07T15:38:23;29.25;;;23.33;;
35592;SDS011;64447;52.140;5.602;2023-05-07T15:40:50;32.42;;;23.48;;
35592;SDS011;64447;52.140;5.602;2023-05-07T15:43:15;29.58;;;23.50;;
35592;SDS011;64447;52.140;5.602;2023-05-07T15:45:42;28.13;;;22.73;;
35592;SDS011;64447;52.140;5.602;2023-05-07T15:48:08;32.80;;;24.50;;
35592;SDS011;64447;52.140;5.602;2023-05-07T15:50:35;33.30;;;24.42;;
35592;SDS011;64447;52.140;5.602;2023-05-07T15:53:01;32.55;;;25.17;;
35592;SDS011;64447;52.140;5.602;2023-05-07T15:55:28;30.73;;;24.70;;
35592;SDS011;64447;52.140;5.602;2023-05-07T15:57:54;29.95;;;23.83;;